<?xml version="1.0" encoding="UTF-8" standalone="no" ?>
<gpx xmlns="http://www.topografix.com/GPX/1/1" xmlns:xsi="http://www.w3.org/2001/XMLSchema-instance" xsi:schemaLocation="http://www.topografix.com/GPX/1/1 http://www.topografix.com/GPX/1/1/gpx.xsd" version="1.1" creator="VisuGPX - https://www.visugpx.com">
  <metadata>
    <name>Course à pied dans l'après-midi</name>
  </metadata>
  <trk>
    <name><![CDATA[Course à pied dans l'après-midi_1]]></name>
    <trkseg>
      <trkpt lat="45.54277" lon="-0.77629">
        <ele>39</ele>
        <time>2023-10-27T15:54:20Z</time>
      </trkpt>
      <trkpt lat="45.54273" lon="-0.77633">
        <ele>39</ele>
        <time>2023-10-27T15:54:22Z</time>
      </trkpt>
      <trkpt lat="45.5426" lon="-0.77652">
        <ele>39.1</ele>
        <time>2023-10-27T15:54:29Z</time>
      </trkpt>
      <trkpt lat="45.54256" lon="-0.77677">
        <ele>39.3</ele>
        <time>2023-10-27T15:54:37Z</time>
      </trkpt>
      <trkpt lat="45.54272" lon="-0.77691">
        <ele>39.3</ele>
        <time>2023-10-27T15:54:44Z</time>
      </trkpt>
      <trkpt lat="45.54277" lon="-0.77692">
        <ele>39.2</ele>
        <time>2023-10-27T15:54:46Z</time>
      </trkpt>
      <trkpt lat="45.5429" lon="-0.77671">
        <ele>39.1</ele>
        <time>2023-10-27T15:54:53Z</time>
      </trkpt>
      <trkpt lat="45.543" lon="-0.77647">
        <ele>39</ele>
        <time>2023-10-27T15:55:00Z</time>
      </trkpt>
      <trkpt lat="45.54306" lon="-0.77622">
        <ele>38.9</ele>
        <time>2023-10-27T15:55:07Z</time>
      </trkpt>
      <trkpt lat="45.54311" lon="-0.77596">
        <ele>38.9</ele>
        <time>2023-10-27T15:55:14Z</time>
      </trkpt>
      <trkpt lat="45.54319" lon="-0.7757">
        <ele>38.7</ele>
        <time>2023-10-27T15:55:21Z</time>
      </trkpt>
      <trkpt lat="45.54332" lon="-0.77552">
        <ele>38.7</ele>
        <time>2023-10-27T15:55:27Z</time>
      </trkpt>
      <trkpt lat="45.54345" lon="-0.77533">
        <ele>38.8</ele>
        <time>2023-10-27T15:55:33Z</time>
      </trkpt>
      <trkpt lat="45.54347" lon="-0.77506">
        <ele>38.9</ele>
        <time>2023-10-27T15:55:40Z</time>
      </trkpt>
      <trkpt lat="45.54344" lon="-0.77477">
        <ele>38.8</ele>
        <time>2023-10-27T15:55:47Z</time>
      </trkpt>
      <trkpt lat="45.54338" lon="-0.77452">
        <ele>38.5</ele>
        <time>2023-10-27T15:55:53Z</time>
      </trkpt>
      <trkpt lat="45.54334" lon="-0.77424">
        <ele>38.5</ele>
        <time>2023-10-27T15:56:00Z</time>
      </trkpt>
      <trkpt lat="45.54335" lon="-0.77396">
        <ele>38.4</ele>
        <time>2023-10-27T15:56:07Z</time>
      </trkpt>
      <trkpt lat="45.54335" lon="-0.77367">
        <ele>38.3</ele>
        <time>2023-10-27T15:56:14Z</time>
      </trkpt>
      <trkpt lat="45.54336" lon="-0.7734">
        <ele>38.1</ele>
        <time>2023-10-27T15:56:21Z</time>
      </trkpt>
      <trkpt lat="45.54347" lon="-0.77317">
        <ele>38.2</ele>
        <time>2023-10-27T15:56:28Z</time>
      </trkpt>
      <trkpt lat="45.54359" lon="-0.77295">
        <ele>39</ele>
        <time>2023-10-27T15:56:35Z</time>
      </trkpt>
      <trkpt lat="45.54368" lon="-0.77271">
        <ele>39.7</ele>
        <time>2023-10-27T15:56:42Z</time>
      </trkpt>
      <trkpt lat="45.54369" lon="-0.77243">
        <ele>40.6</ele>
        <time>2023-10-27T15:56:50Z</time>
      </trkpt>
      <trkpt lat="45.54367" lon="-0.77214">
        <ele>41.7</ele>
        <time>2023-10-27T15:56:58Z</time>
      </trkpt>
      <trkpt lat="45.54367" lon="-0.77188">
        <ele>42.4</ele>
        <time>2023-10-27T15:57:05Z</time>
      </trkpt>
      <trkpt lat="45.54367" lon="-0.77161">
        <ele>43.3</ele>
        <time>2023-10-27T15:57:13Z</time>
      </trkpt>
      <trkpt lat="45.54369" lon="-0.77134">
        <ele>44.1</ele>
        <time>2023-10-27T15:57:21Z</time>
      </trkpt>
      <trkpt lat="45.54367" lon="-0.77106">
        <ele>44.7</ele>
        <time>2023-10-27T15:57:29Z</time>
      </trkpt>
      <trkpt lat="45.54367" lon="-0.77078">
        <ele>45.1</ele>
        <time>2023-10-27T15:57:37Z</time>
      </trkpt>
      <trkpt lat="45.54369" lon="-0.77053">
        <ele>45.2</ele>
        <time>2023-10-27T15:57:44Z</time>
      </trkpt>
      <trkpt lat="45.54371" lon="-0.77027">
        <ele>45.1</ele>
        <time>2023-10-27T15:57:51Z</time>
      </trkpt>
      <trkpt lat="45.54371" lon="-0.77">
        <ele>45</ele>
        <time>2023-10-27T15:57:58Z</time>
      </trkpt>
      <trkpt lat="45.54372" lon="-0.76972">
        <ele>44.9</ele>
        <time>2023-10-27T15:58:06Z</time>
      </trkpt>
      <trkpt lat="45.54372" lon="-0.76943">
        <ele>44.7</ele>
        <time>2023-10-27T15:58:14Z</time>
      </trkpt>
      <trkpt lat="45.54373" lon="-0.76917">
        <ele>44.6</ele>
        <time>2023-10-27T15:58:21Z</time>
      </trkpt>
      <trkpt lat="45.54372" lon="-0.76891">
        <ele>44.4</ele>
        <time>2023-10-27T15:58:28Z</time>
      </trkpt>
      <trkpt lat="45.54373" lon="-0.76863">
        <ele>44.2</ele>
        <time>2023-10-27T15:58:36Z</time>
      </trkpt>
      <trkpt lat="45.54372" lon="-0.76837">
        <ele>44.1</ele>
        <time>2023-10-27T15:58:43Z</time>
      </trkpt>
      <trkpt lat="45.54372" lon="-0.76808">
        <ele>43.9</ele>
        <time>2023-10-27T15:58:51Z</time>
      </trkpt>
      <trkpt lat="45.54369" lon="-0.76782">
        <ele>43.7</ele>
        <time>2023-10-27T15:58:58Z</time>
      </trkpt>
      <trkpt lat="45.54368" lon="-0.76754">
        <ele>43.6</ele>
        <time>2023-10-27T15:59:06Z</time>
      </trkpt>
      <trkpt lat="45.54369" lon="-0.76725">
        <ele>43.4</ele>
        <time>2023-10-27T15:59:14Z</time>
      </trkpt>
      <trkpt lat="45.54369" lon="-0.76699">
        <ele>43.2</ele>
        <time>2023-10-27T15:59:21Z</time>
      </trkpt>
      <trkpt lat="45.54368" lon="-0.76672">
        <ele>43</ele>
        <time>2023-10-27T15:59:28Z</time>
      </trkpt>
      <trkpt lat="45.5437" lon="-0.76646">
        <ele>42.9</ele>
        <time>2023-10-27T15:59:35Z</time>
      </trkpt>
      <trkpt lat="45.54372" lon="-0.76618">
        <ele>42.7</ele>
        <time>2023-10-27T15:59:42Z</time>
      </trkpt>
      <trkpt lat="45.54373" lon="-0.76591">
        <ele>42.5</ele>
        <time>2023-10-27T15:59:48Z</time>
      </trkpt>
      <trkpt lat="45.54373" lon="-0.76565">
        <ele>42.4</ele>
        <time>2023-10-27T15:59:54Z</time>
      </trkpt>
      <trkpt lat="45.54373" lon="-0.76536">
        <ele>42.2</ele>
        <time>2023-10-27T16:00:01Z</time>
      </trkpt>
      <trkpt lat="45.54374" lon="-0.76508">
        <ele>42</ele>
        <time>2023-10-27T16:00:08Z</time>
      </trkpt>
      <trkpt lat="45.54376" lon="-0.76479">
        <ele>41.9</ele>
        <time>2023-10-27T16:00:15Z</time>
      </trkpt>
      <trkpt lat="45.54388" lon="-0.76461">
        <ele>41.7</ele>
        <time>2023-10-27T16:00:23Z</time>
      </trkpt>
      <trkpt lat="45.54407" lon="-0.76458">
        <ele>41.5</ele>
        <time>2023-10-27T16:00:30Z</time>
      </trkpt>
      <trkpt lat="45.54427" lon="-0.76454">
        <ele>41.3</ele>
        <time>2023-10-27T16:00:37Z</time>
      </trkpt>
      <trkpt lat="45.54445" lon="-0.76447">
        <ele>41.2</ele>
        <time>2023-10-27T16:00:44Z</time>
      </trkpt>
      <trkpt lat="45.54436" lon="-0.76425">
        <ele>41</ele>
        <time>2023-10-27T16:00:55Z</time>
      </trkpt>
      <trkpt lat="45.54431" lon="-0.76418">
        <ele>41</ele>
        <time>2023-10-27T16:00:59Z</time>
      </trkpt>
      <trkpt lat="45.5443" lon="-0.76415">
        <ele>40.9</ele>
        <time>2023-10-27T16:01:01Z</time>
      </trkpt>
      <trkpt lat="45.54419" lon="-0.76412">
        <ele>40.8</ele>
        <time>2023-10-27T16:01:09Z</time>
      </trkpt>
      <trkpt lat="45.54414" lon="-0.76411">
        <ele>40.8</ele>
        <time>2023-10-27T16:01:17Z</time>
      </trkpt>
      <trkpt lat="45.5441" lon="-0.7641">
        <ele>40.8</ele>
        <time>2023-10-27T16:01:19Z</time>
      </trkpt>
      <trkpt lat="45.54392" lon="-0.76403">
        <ele>40.6</ele>
        <time>2023-10-27T16:01:26Z</time>
      </trkpt>
      <trkpt lat="45.54386" lon="-0.76399">
        <ele>40.5</ele>
        <time>2023-10-27T16:01:29Z</time>
      </trkpt>
      <trkpt lat="45.5438" lon="-0.76388">
        <ele>40.5</ele>
        <time>2023-10-27T16:01:34Z</time>
      </trkpt>
      <trkpt lat="45.54381" lon="-0.76362">
        <ele>40.3</ele>
        <time>2023-10-27T16:01:41Z</time>
      </trkpt>
      <trkpt lat="45.54382" lon="-0.76336">
        <ele>40.1</ele>
        <time>2023-10-27T16:01:48Z</time>
      </trkpt>
      <trkpt lat="45.54382" lon="-0.76309">
        <ele>40</ele>
        <time>2023-10-27T16:01:55Z</time>
      </trkpt>
      <trkpt lat="45.54382" lon="-0.76282">
        <ele>39.8</ele>
        <time>2023-10-27T16:02:02Z</time>
      </trkpt>
      <trkpt lat="45.54382" lon="-0.76254">
        <ele>39.6</ele>
        <time>2023-10-27T16:02:11Z</time>
      </trkpt>
      <trkpt lat="45.54381" lon="-0.76237">
        <ele>39.5</ele>
        <time>2023-10-27T16:02:19Z</time>
      </trkpt>
      <trkpt lat="45.54381" lon="-0.76232">
        <ele>39.5</ele>
        <time>2023-10-27T16:02:21Z</time>
      </trkpt>
      <trkpt lat="45.54381" lon="-0.76203">
        <ele>39.3</ele>
        <time>2023-10-27T16:02:28Z</time>
      </trkpt>
      <trkpt lat="45.54381" lon="-0.76176">
        <ele>39.1</ele>
        <time>2023-10-27T16:02:35Z</time>
      </trkpt>
      <trkpt lat="45.54368" lon="-0.7616">
        <ele>39.1</ele>
        <time>2023-10-27T16:02:42Z</time>
      </trkpt>
      <trkpt lat="45.54349" lon="-0.76156">
        <ele>39.2</ele>
        <time>2023-10-27T16:02:49Z</time>
      </trkpt>
      <trkpt lat="45.54328" lon="-0.76156">
        <ele>39.3</ele>
        <time>2023-10-27T16:02:56Z</time>
      </trkpt>
      <trkpt lat="45.5431" lon="-0.7615">
        <ele>39.4</ele>
        <time>2023-10-27T16:03:02Z</time>
      </trkpt>
      <trkpt lat="45.54292" lon="-0.76147">
        <ele>39.5</ele>
        <time>2023-10-27T16:03:08Z</time>
      </trkpt>
      <trkpt lat="45.54271" lon="-0.76149">
        <ele>39.5</ele>
        <time>2023-10-27T16:03:15Z</time>
      </trkpt>
      <trkpt lat="45.54252" lon="-0.76148">
        <ele>39.6</ele>
        <time>2023-10-27T16:03:22Z</time>
      </trkpt>
      <trkpt lat="45.54242" lon="-0.76137">
        <ele>39.6</ele>
        <time>2023-10-27T16:03:27Z</time>
      </trkpt>
      <trkpt lat="45.54247" lon="-0.76111">
        <ele>39.5</ele>
        <time>2023-10-27T16:03:33Z</time>
      </trkpt>
      <trkpt lat="45.54254" lon="-0.76087">
        <ele>39.4</ele>
        <time>2023-10-27T16:03:39Z</time>
      </trkpt>
      <trkpt lat="45.54261" lon="-0.76062">
        <ele>39.3</ele>
        <time>2023-10-27T16:03:45Z</time>
      </trkpt>
      <trkpt lat="45.54268" lon="-0.76036">
        <ele>39.2</ele>
        <time>2023-10-27T16:03:51Z</time>
      </trkpt>
      <trkpt lat="45.54276" lon="-0.76011">
        <ele>39.2</ele>
        <time>2023-10-27T16:03:57Z</time>
      </trkpt>
      <trkpt lat="45.54284" lon="-0.75987">
        <ele>39.2</ele>
        <time>2023-10-27T16:04:03Z</time>
      </trkpt>
      <trkpt lat="45.54291" lon="-0.75961">
        <ele>39.3</ele>
        <time>2023-10-27T16:04:09Z</time>
      </trkpt>
      <trkpt lat="45.54291" lon="-0.75957">
        <ele>39.3</ele>
        <time>2023-10-27T16:04:10Z</time>
      </trkpt>
      <trkpt lat="45.54285" lon="-0.75946">
        <ele>39.4</ele>
        <time>2023-10-27T16:04:14Z</time>
      </trkpt>
      <trkpt lat="45.5429" lon="-0.75921">
        <ele>39.3</ele>
        <time>2023-10-27T16:04:21Z</time>
      </trkpt>
      <trkpt lat="45.54296" lon="-0.75897">
        <ele>39.3</ele>
        <time>2023-10-27T16:04:28Z</time>
      </trkpt>
      <trkpt lat="45.54302" lon="-0.7587">
        <ele>39.4</ele>
        <time>2023-10-27T16:04:35Z</time>
      </trkpt>
      <trkpt lat="45.54303" lon="-0.75862">
        <ele>39.4</ele>
        <time>2023-10-27T16:04:36Z</time>
      </trkpt>
      <trkpt lat="45.54291" lon="-0.75844">
        <ele>39.4</ele>
        <time>2023-10-27T16:04:44Z</time>
      </trkpt>
      <trkpt lat="45.54273" lon="-0.75835">
        <ele>39.3</ele>
        <time>2023-10-27T16:04:51Z</time>
      </trkpt>
      <trkpt lat="45.54255" lon="-0.75829">
        <ele>39.3</ele>
        <time>2023-10-27T16:04:58Z</time>
      </trkpt>
      <trkpt lat="45.54236" lon="-0.75821">
        <ele>39.2</ele>
        <time>2023-10-27T16:05:06Z</time>
      </trkpt>
      <trkpt lat="45.54217" lon="-0.75812">
        <ele>39.1</ele>
        <time>2023-10-27T16:05:14Z</time>
      </trkpt>
      <trkpt lat="45.54197" lon="-0.75803">
        <ele>39.1</ele>
        <time>2023-10-27T16:05:21Z</time>
      </trkpt>
      <trkpt lat="45.54178" lon="-0.75796">
        <ele>39</ele>
        <time>2023-10-27T16:05:27Z</time>
      </trkpt>
      <trkpt lat="45.54158" lon="-0.75789">
        <ele>38.9</ele>
        <time>2023-10-27T16:05:34Z</time>
      </trkpt>
      <trkpt lat="45.5414" lon="-0.75782">
        <ele>38.9</ele>
        <time>2023-10-27T16:05:41Z</time>
      </trkpt>
      <trkpt lat="45.54121" lon="-0.75789">
        <ele>38.9</ele>
        <time>2023-10-27T16:05:50Z</time>
      </trkpt>
      <trkpt lat="45.54113" lon="-0.75812">
        <ele>38.9</ele>
        <time>2023-10-27T16:05:58Z</time>
      </trkpt>
      <trkpt lat="45.54096" lon="-0.75824">
        <ele>39.1</ele>
        <time>2023-10-27T16:06:05Z</time>
      </trkpt>
      <trkpt lat="45.54079" lon="-0.75815">
        <ele>39.2</ele>
        <time>2023-10-27T16:06:12Z</time>
      </trkpt>
      <trkpt lat="45.54061" lon="-0.75802">
        <ele>39.3</ele>
        <time>2023-10-27T16:06:20Z</time>
      </trkpt>
      <trkpt lat="45.54043" lon="-0.75788">
        <ele>39.7</ele>
        <time>2023-10-27T16:06:28Z</time>
      </trkpt>
      <trkpt lat="45.54024" lon="-0.75776">
        <ele>40.1</ele>
        <time>2023-10-27T16:06:36Z</time>
      </trkpt>
      <trkpt lat="45.54004" lon="-0.75767">
        <ele>40.4</ele>
        <time>2023-10-27T16:06:43Z</time>
      </trkpt>
      <trkpt lat="45.53986" lon="-0.75757">
        <ele>40.5</ele>
        <time>2023-10-27T16:06:50Z</time>
      </trkpt>
      <trkpt lat="45.53967" lon="-0.75747">
        <ele>40.6</ele>
        <time>2023-10-27T16:06:57Z</time>
      </trkpt>
      <trkpt lat="45.53949" lon="-0.75736">
        <ele>40.6</ele>
        <time>2023-10-27T16:07:05Z</time>
      </trkpt>
      <trkpt lat="45.53932" lon="-0.75725">
        <ele>40.3</ele>
        <time>2023-10-27T16:07:12Z</time>
      </trkpt>
      <trkpt lat="45.53922" lon="-0.75747">
        <ele>39.7</ele>
        <time>2023-10-27T16:07:19Z</time>
      </trkpt>
      <trkpt lat="45.53914" lon="-0.75774">
        <ele>39.4</ele>
        <time>2023-10-27T16:07:26Z</time>
      </trkpt>
      <trkpt lat="45.53906" lon="-0.75801">
        <ele>39.3</ele>
        <time>2023-10-27T16:07:32Z</time>
      </trkpt>
      <trkpt lat="45.53898" lon="-0.75825">
        <ele>39.3</ele>
        <time>2023-10-27T16:07:38Z</time>
      </trkpt>
      <trkpt lat="45.53892" lon="-0.75851">
        <ele>39.6</ele>
        <time>2023-10-27T16:07:45Z</time>
      </trkpt>
      <trkpt lat="45.53878" lon="-0.75869">
        <ele>39.8</ele>
        <time>2023-10-27T16:07:52Z</time>
      </trkpt>
      <trkpt lat="45.53861" lon="-0.7588">
        <ele>40</ele>
        <time>2023-10-27T16:07:59Z</time>
      </trkpt>
      <trkpt lat="45.53843" lon="-0.7589">
        <ele>40.5</ele>
        <time>2023-10-27T16:08:07Z</time>
      </trkpt>
      <trkpt lat="45.53825" lon="-0.759">
        <ele>40.9</ele>
        <time>2023-10-27T16:08:15Z</time>
      </trkpt>
      <trkpt lat="45.53809" lon="-0.75914">
        <ele>41.2</ele>
        <time>2023-10-27T16:08:22Z</time>
      </trkpt>
      <trkpt lat="45.53791" lon="-0.75927">
        <ele>41.7</ele>
        <time>2023-10-27T16:08:29Z</time>
      </trkpt>
      <trkpt lat="45.53774" lon="-0.75941">
        <ele>42.1</ele>
        <time>2023-10-27T16:08:36Z</time>
      </trkpt>
      <trkpt lat="45.53757" lon="-0.75954">
        <ele>42.6</ele>
        <time>2023-10-27T16:08:43Z</time>
      </trkpt>
      <trkpt lat="45.53739" lon="-0.75966">
        <ele>43.4</ele>
        <time>2023-10-27T16:08:50Z</time>
      </trkpt>
      <trkpt lat="45.53722" lon="-0.7598">
        <ele>43.9</ele>
        <time>2023-10-27T16:08:57Z</time>
      </trkpt>
      <trkpt lat="45.53708" lon="-0.75996">
        <ele>44.1</ele>
        <time>2023-10-27T16:09:04Z</time>
      </trkpt>
      <trkpt lat="45.53692" lon="-0.76011">
        <ele>44.5</ele>
        <time>2023-10-27T16:09:11Z</time>
      </trkpt>
      <trkpt lat="45.53674" lon="-0.76026">
        <ele>45.2</ele>
        <time>2023-10-27T16:09:18Z</time>
      </trkpt>
      <trkpt lat="45.53659" lon="-0.76042">
        <ele>45.7</ele>
        <time>2023-10-27T16:09:25Z</time>
      </trkpt>
      <trkpt lat="45.53643" lon="-0.76058">
        <ele>46.1</ele>
        <time>2023-10-27T16:09:32Z</time>
      </trkpt>
      <trkpt lat="45.53626" lon="-0.76073">
        <ele>46.6</ele>
        <time>2023-10-27T16:09:39Z</time>
      </trkpt>
      <trkpt lat="45.5361" lon="-0.76092">
        <ele>47.1</ele>
        <time>2023-10-27T16:09:46Z</time>
      </trkpt>
      <trkpt lat="45.53594" lon="-0.7611">
        <ele>47.9</ele>
        <time>2023-10-27T16:09:53Z</time>
      </trkpt>
      <trkpt lat="45.53578" lon="-0.76125">
        <ele>48.7</ele>
        <time>2023-10-27T16:10:00Z</time>
      </trkpt>
      <trkpt lat="45.53562" lon="-0.76143">
        <ele>49.5</ele>
        <time>2023-10-27T16:10:07Z</time>
      </trkpt>
      <trkpt lat="45.53546" lon="-0.76155">
        <ele>50.4</ele>
        <time>2023-10-27T16:10:13Z</time>
      </trkpt>
      <trkpt lat="45.53528" lon="-0.76168">
        <ele>51.4</ele>
        <time>2023-10-27T16:10:20Z</time>
      </trkpt>
      <trkpt lat="45.53511" lon="-0.76182">
        <ele>51.8</ele>
        <time>2023-10-27T16:10:27Z</time>
      </trkpt>
      <trkpt lat="45.53494" lon="-0.76199">
        <ele>51.8</ele>
        <time>2023-10-27T16:10:35Z</time>
      </trkpt>
      <trkpt lat="45.5348" lon="-0.76214">
        <ele>51.8</ele>
        <time>2023-10-27T16:10:42Z</time>
      </trkpt>
      <trkpt lat="45.53463" lon="-0.76229">
        <ele>51.5</ele>
        <time>2023-10-27T16:10:49Z</time>
      </trkpt>
      <trkpt lat="45.53448" lon="-0.76244">
        <ele>51</ele>
        <time>2023-10-27T16:10:55Z</time>
      </trkpt>
      <trkpt lat="45.5343" lon="-0.7626">
        <ele>50.4</ele>
        <time>2023-10-27T16:11:01Z</time>
      </trkpt>
      <trkpt lat="45.53415" lon="-0.76274">
        <ele>49.9</ele>
        <time>2023-10-27T16:11:07Z</time>
      </trkpt>
      <trkpt lat="45.53397" lon="-0.76291">
        <ele>49.2</ele>
        <time>2023-10-27T16:11:13Z</time>
      </trkpt>
      <trkpt lat="45.53381" lon="-0.76303">
        <ele>48.7</ele>
        <time>2023-10-27T16:11:19Z</time>
      </trkpt>
      <trkpt lat="45.53363" lon="-0.76317">
        <ele>48.4</ele>
        <time>2023-10-27T16:11:25Z</time>
      </trkpt>
      <trkpt lat="45.53348" lon="-0.76332">
        <ele>48.3</ele>
        <time>2023-10-27T16:11:31Z</time>
      </trkpt>
      <trkpt lat="45.53333" lon="-0.7635">
        <ele>48.1</ele>
        <time>2023-10-27T16:11:38Z</time>
      </trkpt>
      <trkpt lat="45.53322" lon="-0.76373">
        <ele>48.3</ele>
        <time>2023-10-27T16:11:44Z</time>
      </trkpt>
      <trkpt lat="45.53321" lon="-0.76378">
        <ele>48.2</ele>
        <time>2023-10-27T16:11:45Z</time>
      </trkpt>
      <trkpt lat="45.53332" lon="-0.76404">
        <ele>48.1</ele>
        <time>2023-10-27T16:11:51Z</time>
      </trkpt>
      <trkpt lat="45.53346" lon="-0.76426">
        <ele>48</ele>
        <time>2023-10-27T16:11:57Z</time>
      </trkpt>
      <trkpt lat="45.53359" lon="-0.76449">
        <ele>47.8</ele>
        <time>2023-10-27T16:12:04Z</time>
      </trkpt>
      <trkpt lat="45.53369" lon="-0.76474">
        <ele>47.7</ele>
        <time>2023-10-27T16:12:11Z</time>
      </trkpt>
      <trkpt lat="45.53376" lon="-0.765">
        <ele>47.6</ele>
        <time>2023-10-27T16:12:18Z</time>
      </trkpt>
      <trkpt lat="45.53384" lon="-0.76524">
        <ele>47.4</ele>
        <time>2023-10-27T16:12:25Z</time>
      </trkpt>
      <trkpt lat="45.53396" lon="-0.76548">
        <ele>47.3</ele>
        <time>2023-10-27T16:12:32Z</time>
      </trkpt>
      <trkpt lat="45.53408" lon="-0.7657">
        <ele>47.2</ele>
        <time>2023-10-27T16:12:39Z</time>
      </trkpt>
      <trkpt lat="45.53417" lon="-0.76593">
        <ele>47</ele>
        <time>2023-10-27T16:12:46Z</time>
      </trkpt>
      <trkpt lat="45.53427" lon="-0.76619">
        <ele>46.9</ele>
        <time>2023-10-27T16:12:53Z</time>
      </trkpt>
      <trkpt lat="45.53437" lon="-0.76641">
        <ele>46.8</ele>
        <time>2023-10-27T16:13:00Z</time>
      </trkpt>
      <trkpt lat="45.53452" lon="-0.76661">
        <ele>46.6</ele>
        <time>2023-10-27T16:13:07Z</time>
      </trkpt>
      <trkpt lat="45.53467" lon="-0.76677">
        <ele>46.5</ele>
        <time>2023-10-27T16:13:14Z</time>
      </trkpt>
      <trkpt lat="45.53483" lon="-0.76688">
        <ele>46.4</ele>
        <time>2023-10-27T16:13:21Z</time>
      </trkpt>
      <trkpt lat="45.53501" lon="-0.76702">
        <ele>46.2</ele>
        <time>2023-10-27T16:13:28Z</time>
      </trkpt>
      <trkpt lat="45.53517" lon="-0.76716">
        <ele>46.1</ele>
        <time>2023-10-27T16:13:35Z</time>
      </trkpt>
      <trkpt lat="45.53536" lon="-0.76733">
        <ele>46</ele>
        <time>2023-10-27T16:13:41Z</time>
      </trkpt>
      <trkpt lat="45.53551" lon="-0.76746">
        <ele>45.8</ele>
        <time>2023-10-27T16:13:45Z</time>
      </trkpt>
      <trkpt lat="45.53569" lon="-0.7676">
        <ele>45.7</ele>
        <time>2023-10-27T16:13:49Z</time>
      </trkpt>
      <trkpt lat="45.53574" lon="-0.76764">
        <ele>45.7</ele>
        <time>2023-10-27T16:13:50Z</time>
      </trkpt>
      <trkpt lat="45.53591" lon="-0.76776">
        <ele>45.5</ele>
        <time>2023-10-27T16:13:54Z</time>
      </trkpt>
      <trkpt lat="45.53608" lon="-0.7679">
        <ele>45.4</ele>
        <time>2023-10-27T16:13:58Z</time>
      </trkpt>
      <trkpt lat="45.53626" lon="-0.76809">
        <ele>45.3</ele>
        <time>2023-10-27T16:14:02Z</time>
      </trkpt>
      <trkpt lat="45.53645" lon="-0.76827">
        <ele>45.1</ele>
        <time>2023-10-27T16:14:06Z</time>
      </trkpt>
      <trkpt lat="45.53662" lon="-0.76844">
        <ele>45</ele>
        <time>2023-10-27T16:14:10Z</time>
      </trkpt>
      <trkpt lat="45.5368" lon="-0.7686">
        <ele>44.8</ele>
        <time>2023-10-27T16:14:14Z</time>
      </trkpt>
      <trkpt lat="45.53697" lon="-0.76873">
        <ele>44.7</ele>
        <time>2023-10-27T16:14:20Z</time>
      </trkpt>
      <trkpt lat="45.53695" lon="-0.76871">
        <ele>44.7</ele>
        <time>2023-10-27T16:14:23Z</time>
      </trkpt>
      <trkpt lat="45.5368" lon="-0.76855">
        <ele>44.6</ele>
        <time>2023-10-27T16:14:30Z</time>
      </trkpt>
      <trkpt lat="45.53679" lon="-0.76856">
        <ele>44.5</ele>
        <time>2023-10-27T16:14:31Z</time>
      </trkpt>
      <trkpt lat="45.53682" lon="-0.76858">
        <ele>44.5</ele>
        <time>2023-10-27T16:14:33Z</time>
      </trkpt>
      <trkpt lat="45.53699" lon="-0.76871">
        <ele>44.4</ele>
        <time>2023-10-27T16:14:40Z</time>
      </trkpt>
      <trkpt lat="45.53707" lon="-0.76872">
        <ele>44.4</ele>
        <time>2023-10-27T16:14:43Z</time>
      </trkpt>
      <trkpt lat="45.53724" lon="-0.76857">
        <ele>44.6</ele>
        <time>2023-10-27T16:14:50Z</time>
      </trkpt>
      <trkpt lat="45.5374" lon="-0.76839">
        <ele>44.8</ele>
        <time>2023-10-27T16:14:56Z</time>
      </trkpt>
      <trkpt lat="45.53756" lon="-0.76818">
        <ele>44.7</ele>
        <time>2023-10-27T16:15:01Z</time>
      </trkpt>
      <trkpt lat="45.53771" lon="-0.76799">
        <ele>44.6</ele>
        <time>2023-10-27T16:15:05Z</time>
      </trkpt>
      <trkpt lat="45.53786" lon="-0.76783">
        <ele>44.6</ele>
        <time>2023-10-27T16:15:09Z</time>
      </trkpt>
      <trkpt lat="45.538" lon="-0.76781">
        <ele>44.7</ele>
        <time>2023-10-27T16:15:12Z</time>
      </trkpt>
      <trkpt lat="45.5382" lon="-0.76792">
        <ele>44.9</ele>
        <time>2023-10-27T16:15:17Z</time>
      </trkpt>
      <trkpt lat="45.53838" lon="-0.76805">
        <ele>45.1</ele>
        <time>2023-10-27T16:15:21Z</time>
      </trkpt>
      <trkpt lat="45.53855" lon="-0.76818">
        <ele>45.3</ele>
        <time>2023-10-27T16:15:25Z</time>
      </trkpt>
      <trkpt lat="45.53874" lon="-0.7683">
        <ele>45.4</ele>
        <time>2023-10-27T16:15:29Z</time>
      </trkpt>
      <trkpt lat="45.53884" lon="-0.76837">
        <ele>45.5</ele>
        <time>2023-10-27T16:15:32Z</time>
      </trkpt>
      <trkpt lat="45.53884" lon="-0.76833">
        <ele>45.6</ele>
        <time>2023-10-27T16:15:35Z</time>
      </trkpt>
      <trkpt lat="45.53868" lon="-0.76825">
        <ele>45.7</ele>
        <time>2023-10-27T16:15:43Z</time>
      </trkpt>
      <trkpt lat="45.53884" lon="-0.76838">
        <ele>45.9</ele>
        <time>2023-10-27T16:15:50Z</time>
      </trkpt>
      <trkpt lat="45.53903" lon="-0.76849">
        <ele>46</ele>
        <time>2023-10-27T16:15:57Z</time>
      </trkpt>
      <trkpt lat="45.5392" lon="-0.76863">
        <ele>46.2</ele>
        <time>2023-10-27T16:16:04Z</time>
      </trkpt>
      <trkpt lat="45.53941" lon="-0.76874">
        <ele>46.4</ele>
        <time>2023-10-27T16:16:11Z</time>
      </trkpt>
      <trkpt lat="45.53957" lon="-0.76884">
        <ele>46.6</ele>
        <time>2023-10-27T16:16:15Z</time>
      </trkpt>
      <trkpt lat="45.53975" lon="-0.76895">
        <ele>46.7</ele>
        <time>2023-10-27T16:16:19Z</time>
      </trkpt>
      <trkpt lat="45.53993" lon="-0.76907">
        <ele>46.9</ele>
        <time>2023-10-27T16:16:23Z</time>
      </trkpt>
      <trkpt lat="45.54011" lon="-0.76919">
        <ele>47.1</ele>
        <time>2023-10-27T16:16:27Z</time>
      </trkpt>
      <trkpt lat="45.5402" lon="-0.76925">
        <ele>47.2</ele>
        <time>2023-10-27T16:16:28Z</time>
      </trkpt>
      <trkpt lat="45.54039" lon="-0.76937">
        <ele>47.4</ele>
        <time>2023-10-27T16:16:33Z</time>
      </trkpt>
      <trkpt lat="45.54056" lon="-0.76949">
        <ele>47.5</ele>
        <time>2023-10-27T16:16:37Z</time>
      </trkpt>
      <trkpt lat="45.5407" lon="-0.76958">
        <ele>47.6</ele>
        <time>2023-10-27T16:16:40Z</time>
      </trkpt>
      <trkpt lat="45.54088" lon="-0.76973">
        <ele>47.4</ele>
        <time>2023-10-27T16:16:44Z</time>
      </trkpt>
      <trkpt lat="45.54107" lon="-0.76987">
        <ele>47.1</ele>
        <time>2023-10-27T16:16:48Z</time>
      </trkpt>
      <trkpt lat="45.5412" lon="-0.76996">
        <ele>46.9</ele>
        <time>2023-10-27T16:16:56Z</time>
      </trkpt>
      <trkpt lat="45.54102" lon="-0.76981">
        <ele>46.7</ele>
        <time>2023-10-27T16:17:04Z</time>
      </trkpt>
      <trkpt lat="45.54098" lon="-0.76977">
        <ele>46.6</ele>
        <time>2023-10-27T16:17:08Z</time>
      </trkpt>
      <trkpt lat="45.54115" lon="-0.7699">
        <ele>46.4</ele>
        <time>2023-10-27T16:17:15Z</time>
      </trkpt>
      <trkpt lat="45.54131" lon="-0.77005">
        <ele>46.2</ele>
        <time>2023-10-27T16:17:22Z</time>
      </trkpt>
      <trkpt lat="45.5413" lon="-0.77034">
        <ele>45.4</ele>
        <time>2023-10-27T16:17:29Z</time>
      </trkpt>
      <trkpt lat="45.54125" lon="-0.77062">
        <ele>44.8</ele>
        <time>2023-10-27T16:17:36Z</time>
      </trkpt>
      <trkpt lat="45.54121" lon="-0.77091">
        <ele>44.2</ele>
        <time>2023-10-27T16:17:41Z</time>
      </trkpt>
      <trkpt lat="45.54116" lon="-0.7712">
        <ele>43.5</ele>
        <time>2023-10-27T16:17:45Z</time>
      </trkpt>
      <trkpt lat="45.54111" lon="-0.7715">
        <ele>42.8</ele>
        <time>2023-10-27T16:17:49Z</time>
      </trkpt>
      <trkpt lat="45.54107" lon="-0.7718">
        <ele>42.2</ele>
        <time>2023-10-27T16:17:53Z</time>
      </trkpt>
      <trkpt lat="45.541" lon="-0.77209">
        <ele>41.7</ele>
        <time>2023-10-27T16:17:57Z</time>
      </trkpt>
      <trkpt lat="45.54092" lon="-0.77236">
        <ele>41.4</ele>
        <time>2023-10-27T16:18:01Z</time>
      </trkpt>
      <trkpt lat="45.54083" lon="-0.77263">
        <ele>41.1</ele>
        <time>2023-10-27T16:18:05Z</time>
      </trkpt>
      <trkpt lat="45.54073" lon="-0.7729">
        <ele>40.8</ele>
        <time>2023-10-27T16:18:09Z</time>
      </trkpt>
      <trkpt lat="45.54065" lon="-0.77314">
        <ele>40.7</ele>
        <time>2023-10-27T16:18:14Z</time>
      </trkpt>
      <trkpt lat="45.54064" lon="-0.77314">
        <ele>40.7</ele>
        <time>2023-10-27T16:18:16Z</time>
      </trkpt>
      <trkpt lat="45.54072" lon="-0.77289">
        <ele>40.7</ele>
        <time>2023-10-27T16:18:23Z</time>
      </trkpt>
      <trkpt lat="45.54075" lon="-0.77283">
        <ele>40.7</ele>
        <time>2023-10-27T16:18:24Z</time>
      </trkpt>
      <trkpt lat="45.54076" lon="-0.77283">
        <ele>40.7</ele>
        <time>2023-10-27T16:18:26Z</time>
      </trkpt>
      <trkpt lat="45.54076" lon="-0.77286">
        <ele>40.7</ele>
        <time>2023-10-27T16:18:28Z</time>
      </trkpt>
      <trkpt lat="45.5407" lon="-0.7731">
        <ele>40.8</ele>
        <time>2023-10-27T16:18:35Z</time>
      </trkpt>
      <trkpt lat="45.54072" lon="-0.77316">
        <ele>40.8</ele>
        <time>2023-10-27T16:18:36Z</time>
      </trkpt>
      <trkpt lat="45.54091" lon="-0.77322">
        <ele>40.6</ele>
        <time>2023-10-27T16:18:44Z</time>
      </trkpt>
      <trkpt lat="45.5411" lon="-0.77324">
        <ele>40.4</ele>
        <time>2023-10-27T16:18:51Z</time>
      </trkpt>
      <trkpt lat="45.54128" lon="-0.77326">
        <ele>40.2</ele>
        <time>2023-10-27T16:18:58Z</time>
      </trkpt>
      <trkpt lat="45.54149" lon="-0.77329">
        <ele>40</ele>
        <time>2023-10-27T16:19:05Z</time>
      </trkpt>
      <trkpt lat="45.54169" lon="-0.77332">
        <ele>39.8</ele>
        <time>2023-10-27T16:19:12Z</time>
      </trkpt>
      <trkpt lat="45.54187" lon="-0.77332">
        <ele>39.6</ele>
        <time>2023-10-27T16:19:18Z</time>
      </trkpt>
      <trkpt lat="45.54208" lon="-0.77333">
        <ele>39.4</ele>
        <time>2023-10-27T16:19:25Z</time>
      </trkpt>
      <trkpt lat="45.54226" lon="-0.77333">
        <ele>39.2</ele>
        <time>2023-10-27T16:19:31Z</time>
      </trkpt>
      <trkpt lat="45.54246" lon="-0.77333">
        <ele>39</ele>
        <time>2023-10-27T16:19:38Z</time>
      </trkpt>
      <trkpt lat="45.54267" lon="-0.77334">
        <ele>38.8</ele>
        <time>2023-10-27T16:19:45Z</time>
      </trkpt>
      <trkpt lat="45.54288" lon="-0.77336">
        <ele>38.6</ele>
        <time>2023-10-27T16:19:52Z</time>
      </trkpt>
      <trkpt lat="45.54309" lon="-0.77338">
        <ele>38.4</ele>
        <time>2023-10-27T16:19:59Z</time>
      </trkpt>
      <trkpt lat="45.54328" lon="-0.77341">
        <ele>38.2</ele>
        <time>2023-10-27T16:20:05Z</time>
      </trkpt>
      <trkpt lat="45.54334" lon="-0.77366">
        <ele>38.3</ele>
        <time>2023-10-27T16:20:12Z</time>
      </trkpt>
      <trkpt lat="45.54333" lon="-0.77392">
        <ele>38.4</ele>
        <time>2023-10-27T16:20:18Z</time>
      </trkpt>
      <trkpt lat="45.54332" lon="-0.77421">
        <ele>38.5</ele>
        <time>2023-10-27T16:20:25Z</time>
      </trkpt>
      <trkpt lat="45.54333" lon="-0.77451">
        <ele>38.5</ele>
        <time>2023-10-27T16:20:32Z</time>
      </trkpt>
      <trkpt lat="45.54338" lon="-0.77476">
        <ele>38.8</ele>
        <time>2023-10-27T16:20:38Z</time>
      </trkpt>
      <trkpt lat="45.54342" lon="-0.77503">
        <ele>38.9</ele>
        <time>2023-10-27T16:20:45Z</time>
      </trkpt>
      <trkpt lat="45.54343" lon="-0.77529">
        <ele>38.8</ele>
        <time>2023-10-27T16:20:52Z</time>
      </trkpt>
      <trkpt lat="45.54333" lon="-0.77552">
        <ele>38.7</ele>
        <time>2023-10-27T16:21:00Z</time>
      </trkpt>
      <trkpt lat="45.54317" lon="-0.77567">
        <ele>38.7</ele>
        <time>2023-10-27T16:21:07Z</time>
      </trkpt>
      <trkpt lat="45.54309" lon="-0.77593">
        <ele>38.9</ele>
        <time>2023-10-27T16:21:14Z</time>
      </trkpt>
      <trkpt lat="45.54301" lon="-0.77617">
        <ele>38.9</ele>
        <time>2023-10-27T16:21:21Z</time>
      </trkpt>
      <trkpt lat="45.5429" lon="-0.77641">
        <ele>39</ele>
        <time>2023-10-27T16:21:28Z</time>
      </trkpt>
      <trkpt lat="45.5428" lon="-0.77665">
        <ele>39.1</ele>
        <time>2023-10-27T16:21:35Z</time>
      </trkpt>
      <trkpt lat="45.54272" lon="-0.7769">
        <ele>39.2</ele>
        <time>2023-10-27T16:21:42Z</time>
      </trkpt>
      <trkpt lat="45.54266" lon="-0.77693">
        <ele>39.2</ele>
        <time>2023-10-27T16:21:45Z</time>
      </trkpt>
      <trkpt lat="45.54255" lon="-0.77678">
        <ele>39.3</ele>
        <time>2023-10-27T16:21:52Z</time>
      </trkpt>
    </trkseg>
  </trk>
</gpx>